Nearby METAR Reports

 

KDLZ - Delaware, Ohio, USA
Distance from station: SW 3mi, 5km
Updated: Tue, 13-Apr-2021 3:15pm EDT
Clear
Clear
 Wind from W
Wind: W 7 mph , 11 km/h
Temperature: 63°F , 17°C
Dew Point: 37°F , 3°C
Humidity: 39%
Barometer: 30.09 inHg , 1019 hPa
Clouds: Clear
Visibility: 10 miles , 16 km
2021/04/13 19:15 KDLZ 131915Z AUTO 28006KT 10SM CLR 17/03 A3009 RMK AO2
KOSU - Columbus/St Univ, Ohio, USA
Distance from station: S 16mi, 25km
Updated: Tue, 13-Apr-2021 2:53pm EDT
Clear
Clear
 Wind from W
Wind: W 6 mph , 9 km/h, Gust: 16 mph , 26 km/h
Temperature: 64°F , 18°C
Dew Point: 37°F , 3°C
Humidity: 37%
Barometer: 30.10 inHg , 1019.3 hPa
Clouds: Clear
Visibility: 10 miles , 16 km
2021/04/13 18:53 KOSU 131853Z 26005G14KT 10SM CLR 18/03 A3010 RMK AO2 SLP191 T01780033
 
KMRT - Marysville, Ohio, USA
Distance from station: WSW 16mi, 26km
Updated: Tue, 13-Apr-2021 3:15pm EDT
Clear
Clear
 Wind from WNW
Wind: WNW 7 mph , 11 km/h
Temperature: 63°F , 17°C
Dew Point: 37°F , 3°C
Humidity: 39%
Barometer: 30.10 inHg , 1019.3 hPa
Clouds: Clear
Visibility: 10 miles , 16 km
2021/04/13 19:15 KMRT 131915Z AUTO 30006KT 10SM CLR 17/03 A3010 RMK AO2 T01720032
KMNN - Marion, Ohio, USA
Distance from station: N 21mi, 34km
Updated: Tue, 13-Apr-2021 2:53pm EDT
Clear
Clear
 Wind from varies
Wind: varies 3 mph , 6 km/h
Temperature: 61°F , 16°C
Dew Point: 36°F , 2°C
Humidity: 39%
Barometer: 30.09 inHg , 1019 hPa
Clouds: Clear
Visibility: 10 miles , 16 km
2021/04/13 18:53 KMNN 131853Z AUTO VRB03KT 10SM CLR 16/02 A3009 RMK AO2 SLP191 T01610022
 
KCMH - Columbus, Ohio, USA
Distance from station: SSE 24mi, 38km
Updated: Tue, 13-Apr-2021 2:51pm EDT
Mostly cloudy
Mostly cloudy
 Wind from W
Wind: W 8 mph , 13 km/h, Gust: 20 mph , 31 km/h
Temperature: 66°F , 19°C
Dew Point: 36°F , 2°C
Humidity: 32%
Barometer: 30.09 inHg , 1019 hPa
Clouds: Mostly cloudy
Visibility: 10 miles , 16 km
Cloud details: Mostly cloudy 25000 ft
2021/04/13 18:51 KCMH 131851Z 28007G17KT 10SM BKN250 19/02 A3009 RMK AO2 SLP188 T01890022
K4I3 - Mt Vernon/Knox, Ohio, USA
Distance from station: E 29mi, 46km
Updated: Tue, 13-Apr-2021 3:15pm EDT
Clear
Clear
 Wind from WSW
Wind: WSW 10 mph , 17 km/h
Temperature: 64°F , 18°C
Dew Point: 36°F , 2°C
Humidity: 34%
Barometer: 30.10 inHg , 1019.3 hPa
Clouds: Clear
Visibility: 10 miles , 16 km
2021/04/13 19:15 K4I3 131915Z AUTO 25009KT 10SM CLR 18/02 A3010 RMK AO2
 
KTZR - Columbus/Bolton, Ohio, USA
Distance from station: S 29mi, 46km
Updated: Tue, 13-Apr-2021 2:50pm EDT
Clear
Clear
 Wind from WSW
Wind: WSW 7 mph , 11 km/h
Temperature: 63°F , 17°C
Dew Point: 36°F , 2°C
Humidity: 37%
Barometer: 30.10 inHg , 1019.3 hPa
Clouds: Clear
Visibility: 10 miles , 16 km
2021/04/13 18:50 KTZR 131850Z 25006KT 10SM CLR 17/02 A3010
KUYF - London, Ohio, USA
Distance from station: SW 33mi, 54km
Updated: Tue, 13-Apr-2021 3:15pm EDT
Clear
Clear
 Wind from W
Wind: W 13 mph , 20 km/h
Temperature: 63°F , 17°C
Dew Point: 32°F , 0°C
Humidity: 32%
Barometer: 30.10 inHg , 1019.3 hPa
Clouds: Clear
Visibility: 10 miles , 16 km
2021/04/13 19:15 KUYF 131915Z AUTO 28011KT 10SM CLR 17/00 A3010 RMK AO2
 
KLCK - Rickenbacker Ang, Ohio, USA
Distance from station: SSE 35mi, 57km
Updated: Tue, 13-Apr-2021 2:55pm EDT
Clear
Clear
 Wind from WSW
Wind: WSW 10 mph , 17 km/h
Temperature: 64°F , 18°C
Dew Point: 37°F , 3°C
Humidity: 37%
Barometer: 30.09 inHg , 1019 hPa
Clouds: Clear
Visibility: 10 miles , 16 km
2021/04/13 18:55 KLCK 131855Z AUTO 25009KT 10SM CLR 18/03 A3009 RMK AO2 T01780034
KVTA - Newark, Ohio, USA
Distance from station: ESE 38mi, 61km
Updated: Tue, 13-Apr-2021 2:54pm EDT
Clear
Clear
 Wind from WSW
Wind: WSW 13 mph , 20 km/h, Gust: 18 mph , 30 km/h
Temperature: 64°F , 18°C
Dew Point: 43°F , 6°C
Humidity: 46%
Barometer: 30.08 inHg , 1018.6 hPa
Clouds: Clear
Visibility: 10 miles , 16 km
2021/04/13 18:54 KVTA 131854Z AUTO 24011G16KT 10SM CLR 18/06 A3008 RMK AO2 SLP185 T01830056
 
KEDJ - Bellefontaine, Ohio, USA
Distance from station: W 39mi, 63km
Updated: Tue, 13-Apr-2021 3:15pm EDT
Clear
Clear
 Wind from W
Wind: W 10 mph , 17 km/h
Temperature: 63°F , 17°C
Dew Point: 36°F , 2°C
Humidity: 37%
Barometer: 30.10 inHg , 1019.3 hPa
Clouds: Clear
Visibility: 10 miles , 16 km
2021/04/13 19:15 KEDJ 131915Z AUTO 28009KT 10SM CLR 17/02 A3010 RMK AO1
KLHQ - Lancaster, Ohio, USA
Distance from station: SSE 44mi, 71km
Updated: Tue, 13-Apr-2021 2:53pm EDT
Clear
Clear
 Wind from W
Wind: W 7 mph , 11 km/h
Temperature: 64°F , 18°C
Dew Point: 39°F , 4°C
Humidity: 40%
Barometer: 30.10 inHg , 1019.3 hPa
Clouds: Clear
Visibility: 10 miles , 16 km
2021/04/13 18:53 KLHQ 131853Z AUTO 26006KT 10SM CLR 18/04 A3010 RMK AO2 SLP192 T01780044
 
KMFD - Mansfield, Ohio, USA
Distance from station: NE 46mi, 73km
Updated: Tue, 13-Apr-2021 2:52pm EDT
Clear
Clear
 Wind from W
Wind: W 10 mph , 17 km/h
Temperature: 64°F , 18°C
Dew Point: 37°F , 3°C
Humidity: 37%
Barometer: 30.08 inHg , 1018.6 hPa
Clouds: Clear
Visibility: 9 miles , 14 km
2021/04/13 18:52 KMFD 131852Z 26009KT 9SM CLR 18/03 A3008 RMK AO2 SLP184 T01830028
KSGH - Springfield Muni, Ohio, USA
Distance from station: SW 52mi, 84km
Updated: Tue, 13-Apr-2021 2:56pm EDT
Clear
Clear
 Wind from W
Wind: W 13 mph , 20 km/h, Gust: 18 mph , 30 km/h
Temperature: 63°F , 17°C
Dew Point: 39°F , 4°C
Humidity: 42%
Barometer: 30.11 inHg , 1019.6 hPa
Clouds: Clear
Visibility: 10 miles , 16 km
2021/04/13 18:56 KSGH 131856Z AUTO 28011G16KT 10SM CLR 17/04 A3011 RMK AO2 SLP198 T01670039 PNO $
 
KI23 - Washington Court, Ohio, USA
Distance from station: SSW 55mi, 88km
Updated: Tue, 13-Apr-2021 3:15pm EDT
Clear
Clear
 Wind from WSW
Wind: WSW 9 mph , 15 km/h, Gust: 17 mph , 28 km/h
Temperature: 63°F , 17°C
Dew Point: 36°F , 2°C
Humidity: 37%
Barometer: 30.10 inHg , 1019.3 hPa
Clouds: Clear
Visibility: 10 miles , 16 km
2021/04/13 19:15 KI23 131915Z AUTO 24008G15KT 10SM CLR 17/02 A3010 RMK AO1
KAOH - Lima, Ohio, USA
Distance from station: WNW 56mi, 91km
Updated: Tue, 13-Apr-2021 2:53pm EDT
Clear
Clear
 Wind from SW
Wind: SW 14 mph , 22 km/h, Gust: 17 mph , 28 km/h
Temperature: 63°F , 17°C
Dew Point: 37°F , 3°C
Humidity: 39%
Barometer: 30.08 inHg , 1018.6 hPa
Clouds: Clear
Visibility: 10 miles , 16 km
2021/04/13 18:53 KAOH 131853Z AUTO 23012G15KT 10SM CLR 17/03 A3008 RMK AO2 SLP187 T01720028
 
KFDY - Findlay, Ohio, USA
Distance from station: NNW 58mi, 93km
Updated: Tue, 13-Apr-2021 2:53pm EDT
Clear
Clear
 Wind from W
Wind: W 15 mph , 24 km/h
Temperature: 66°F , 19°C
Dew Point: 36°F , 2°C
Humidity: 32%
Barometer: 30.07 inHg , 1018.3 hPa
Clouds: Clear
Visibility: 10 miles , 16 km
2021/04/13 18:53 KFDY 131853Z AUTO 27013KT 10SM CLR 19/02 A3007 RMK AO2 SLP178 T01890017
KFFO - Wright Paterson, Ohio, USA
Distance from station: SW 61mi, 98km
Updated: Tue, 13-Apr-2021 2:56pm EDT
Mostly cloudy
Mostly cloudy
 Wind from WNW
Wind: WNW 5 mph , 7 km/h
Temperature: 64°F , 18°C
Dew Point: 37°F , 3°C
Humidity: 37%
Barometer: 30.10 inHg , 1019.3 hPa
Clouds: Mostly cloudy
Visibility: 10 miles , 16 km
Cloud details: Mostly cloudy 25000 ft
2021/04/13 18:56 KFFO 131856Z 29004KT 10SM BKN250 18/03 A3010 RMK AO2A SLP197 T01770028
 
KRZT - Chillicothe, Ohio, USA
Distance from station: S 61mi, 98km
Updated: Tue, 13-Apr-2021 3:15pm EDT
Clear
Clear
 Wind from W
Wind: W 6 mph , 9 km/h
Temperature: 63°F , 17°C
Dew Point: 37°F , 3°C
Humidity: 39%
Barometer: 30.11 inHg , 1019.6 hPa
Clouds: Clear
Visibility: 10 miles , 16 km
2021/04/13 19:15 KRZT 131915Z AUTO 27005KT 10SM CLR 17/03 A3011 RMK AO2 PWINO
KI19 - Dayton-Jackson, Ohio, USA
Distance from station: SW 65mi, 105km
Updated: Tue, 13-Apr-2021 3:15pm EDT
Clear
Clear
 Wind from WSW
Wind: WSW 7 mph , 11 km/h
Temperature: 63°F , 17°C
Dew Point: 36°F , 2°C
Humidity: 37%
Barometer: 30.12 inHg , 1020 hPa
Clouds: Clear
Visibility: 10 miles , 16 km
2021/04/13 19:15 KI19 131915Z AUTO 25006KT 10SM CLR 17/02 A3012 RMK AO2 T01720024